createdAt,value
2018-09-29T00:00:33.664Z,3.60
2018-09-29T00:03:05.996Z,3.40
2018-09-29T00:05:38.301Z,3.57
2018-09-29T00:08:10.865Z,4.17
2018-09-29T00:10:43.309Z,5.87
2018-09-29T00:13:15.593Z,3.90
2018-09-29T00:15:47.867Z,5.77
2018-09-29T00:18:20.103Z,5.17
2018-09-29T00:20:52.662Z,2.77
2018-09-29T00:23:25.383Z,3.00
2018-09-29T00:25:57.653Z,4.90
2018-09-29T00:28:30.266Z,9.37
2018-09-29T00:31:02.114Z,8.43
2018-09-29T00:33:34.524Z,4.67
2018-09-29T00:36:07.228Z,5.10
2018-09-29T00:38:39.649Z,14.30
2018-09-29T00:41:12.118Z,6.10
2018-09-29T00:43:44.393Z,4.10
2018-09-29T00:46:16.914Z,3.03
2018-09-29T00:48:49.451Z,8.90
2018-09-29T00:51:21.895Z,6.50
2018-09-29T00:53:54.613Z,5.60
2018-09-29T00:56:26.662Z,5.10
2018-09-29T00:58:59.087Z,22.40
2018-09-29T01:01:30.973Z,5.33
2018-09-29T01:04:03.608Z,5.90
2018-09-29T01:06:35.801Z,4.87
2018-09-29T01:09:08.911Z,5.70
2018-09-29T01:11:41.103Z,5.70
2018-09-29T01:14:13.418Z,6.73
2018-09-29T01:16:45.956Z,5.57
2018-09-29T01:19:18.444Z,4.50
2018-09-29T01:21:50.338Z,6.67
2018-09-29T01:24:22.967Z,4.70
2018-09-29T01:26:55.385Z,5.70
2018-09-29T01:29:27.612Z,6.33
2018-09-29T01:32:00.010Z,8.80
2018-09-29T01:34:33.021Z,2.80
2018-09-29T01:37:05.347Z,5.27
2018-09-29T01:39:37.683Z,5.70
2018-09-29T01:42:10.193Z,7.33
2018-09-29T01:44:42.280Z,6.30
2018-09-29T01:47:14.696Z,5.40
2018-09-29T01:49:46.775Z,3.33
2018-09-29T01:52:18.872Z,4.27
2018-09-29T01:54:50.785Z,8.47
2018-09-29T01:57:22.648Z,8.40
2018-09-29T01:59:55.026Z,6.33
2018-09-29T02:02:27.150Z,4.23
2018-09-29T02:04:58.996Z,6.87
2018-09-29T02:07:30.937Z,6.77
2018-09-29T02:10:02.860Z,3.40
2018-09-29T02:12:34.675Z,5.27
2018-09-29T02:15:07.061Z,6.10
2018-09-29T02:17:39.393Z,6.80
2018-09-29T02:20:11.744Z,7.13
2018-09-29T02:22:43.731Z,7.10
2018-09-29T02:25:16.067Z,3.00
2018-09-29T02:27:48.328Z,4.90
2018-09-29T02:30:20.276Z,2.47
2018-09-29T02:32:52.138Z,3.93
2018-09-29T02:35:24.108Z,4.47
2018-09-29T02:37:55.847Z,4.83
2018-09-29T02:40:27.663Z,3.50
2018-09-29T02:42:59.659Z,8.67
2018-09-29T02:45:31.701Z,5.90
2018-09-29T02:48:03.439Z,8.03
2018-09-29T02:50:35.622Z,5.60
2018-09-29T02:53:08.669Z,7.97
2018-09-29T02:55:40.809Z,7.90
2018-09-29T02:58:13.433Z,4.43
2018-09-29T03:00:45.663Z,7.23
2018-09-29T03:03:17.889Z,8.30
2018-09-29T03:05:50.131Z,5.87
2018-09-29T03:08:23.307Z,3.07
2018-09-29T03:10:55.703Z,5.63
2018-09-29T03:13:28.017Z,4.00
2018-09-29T03:16:00.682Z,6.83
2018-09-29T03:18:32.919Z,6.00
2018-09-29T03:21:04.751Z,2.03
2018-09-29T03:23:37.747Z,4.27
2018-09-29T03:26:10.035Z,3.60
2018-09-29T03:28:42.341Z,3.10
2018-09-29T03:31:14.840Z,3.67
2018-09-29T03:33:47.112Z,6.17
2018-09-29T03:36:18.922Z,3.70
2018-09-29T03:38:50.627Z,7.27
2018-09-29T03:41:22.471Z,3.00
2018-09-29T03:43:54.227Z,5.00
2018-09-29T03:46:26.589Z,5.10
2018-09-29T03:48:58.776Z,4.00
2018-09-29T03:51:31.138Z,5.23
2018-09-29T03:54:03.266Z,3.83
2018-09-29T03:56:35.840Z,3.07
2018-09-29T03:59:08.137Z,4.90
2018-09-29T04:01:40.785Z,7.67
2018-09-29T04:04:12.575Z,4.73
2018-09-29T04:06:44.658Z,3.27
2018-09-29T04:09:16.831Z,6.90
2018-09-29T04:11:49.434Z,6.97
2018-09-29T04:14:21.971Z,4.53
2018-09-29T04:16:54.614Z,3.13
2018-09-29T04:19:26.957Z,4.53
2018-09-29T04:21:59.911Z,4.40
2018-09-29T04:24:31.773Z,4.97
2018-09-29T04:27:04.853Z,3.50
2018-09-29T04:29:37.089Z,8.00
2018-09-29T04:32:09.614Z,3.00
2018-09-29T04:34:41.892Z,5.63
2018-09-29T04:37:14.571Z,4.17
2018-09-29T04:39:47.081Z,5.23
2018-09-29T04:42:19.973Z,4.70
2018-09-29T04:44:52.918Z,3.90
2018-09-29T04:47:25.041Z,3.53
2018-09-29T04:49:56.806Z,4.43
2018-09-29T04:52:28.574Z,4.13
2018-09-29T04:55:01.263Z,3.13
2018-09-29T04:57:33.851Z,5.33
2018-09-29T05:00:06.219Z,5.07
2018-09-29T05:02:38.651Z,5.70
2018-09-29T05:05:10.782Z,7.13
2018-09-29T05:07:43.254Z,10.13
2018-09-29T05:10:15.439Z,5.97
2018-09-29T05:12:48.018Z,11.50
2018-09-29T05:15:20.233Z,4.47
2018-09-29T05:17:52.174Z,8.20
2018-09-29T05:20:24.025Z,11.87
2018-09-29T05:22:55.901Z,6.27
2018-09-29T05:25:28.257Z,7.67
2018-09-29T05:28:01.193Z,6.63
2018-09-29T05:30:33.413Z,5.17
2018-09-29T05:33:05.869Z,5.37
2018-09-29T05:35:37.637Z,5.40
2018-09-29T05:38:09.922Z,8.50
2018-09-29T05:40:42.351Z,5.43
2018-09-29T05:43:14.226Z,7.87
2018-09-29T05:45:46.751Z,6.60
2018-09-29T05:48:18.914Z,5.90
2018-09-29T05:50:51.593Z,9.43
2018-09-29T05:53:23.886Z,5.53
2018-09-29T05:55:56.062Z,5.57
2018-09-29T05:58:28.273Z,11.07
2018-09-29T06:01:00.758Z,7.77
2018-09-29T06:03:33.233Z,7.70
2018-09-29T06:06:05.290Z,8.20
2018-09-29T06:08:38.081Z,6.50
2018-09-29T06:11:10.385Z,4.10
2018-09-29T06:13:42.413Z,4.60
2018-09-29T06:16:14.723Z,9.83
2018-09-29T06:18:47.627Z,8.60
2018-09-29T06:21:19.919Z,11.87
2018-09-29T06:23:52.574Z,4.50
2018-09-29T06:26:25.070Z,9.40
2018-09-29T06:28:57.270Z,13.67
2018-09-29T06:31:29.571Z,6.17
2018-09-29T06:34:01.866Z,6.13
2018-09-29T06:36:33.933Z,7.17
2018-09-29T06:39:06.990Z,6.67
2018-09-29T06:41:39.289Z,8.70
2018-09-29T06:44:11.479Z,6.40
2018-09-29T06:46:43.543Z,6.57
2018-09-29T06:49:15.965Z,9.30
2018-09-29T06:51:48.109Z,5.70
2018-09-29T06:54:20.484Z,5.10
2018-09-29T06:56:52.977Z,8.07
2018-09-29T06:59:25.214Z,10.90
2018-09-29T07:01:57.530Z,11.27
2018-09-29T07:04:29.726Z,10.93
2018-09-29T07:07:02.061Z,7.80
2018-09-29T07:09:34.199Z,6.37
2018-09-29T07:12:06.421Z,9.73
2018-09-29T07:14:38.801Z,12.37
2018-09-29T07:17:10.959Z,7.57
2018-09-29T07:19:43.219Z,7.73
2018-09-29T07:22:15.489Z,17.47
2018-09-29T07:24:47.689Z,10.03
2018-09-29T07:27:19.832Z,7.13
2018-09-29T07:29:51.852Z,6.00
2018-09-29T07:32:23.962Z,6.93
2018-09-29T07:34:56.378Z,10.07
2018-09-29T07:37:28.680Z,6.60
2018-09-29T07:40:01.091Z,7.27
2018-09-29T07:42:33.429Z,8.60
2018-09-29T07:45:05.705Z,10.23
2018-09-29T07:47:38.463Z,11.10
2018-09-29T07:50:10.767Z,8.10
2018-09-29T07:52:42.929Z,12.80
2018-09-29T07:55:15.113Z,10.53
2018-09-29T07:57:47.164Z,12.20
2018-09-29T08:00:19.394Z,10.50
2018-09-29T08:02:51.484Z,9.63
2018-09-29T08:05:23.928Z,8.03
2018-09-29T08:07:55.927Z,7.43
2018-09-29T08:10:28.529Z,9.40
2018-09-29T08:13:01.990Z,9.17
2018-09-29T08:15:34.384Z,9.23
2018-09-29T08:18:06.413Z,11.53
2018-09-29T08:20:38.647Z,9.47
2018-09-29T08:23:10.872Z,9.53
2018-09-29T08:25:42.976Z,7.70
2018-09-29T08:28:15.184Z,7.23
2018-09-29T08:30:47.206Z,9.93
2018-09-29T08:33:19.287Z,7.60
2018-09-29T08:35:51.586Z,8.13
2018-09-29T08:38:23.827Z,12.77
2018-09-29T08:40:56.091Z,16.43
2018-09-29T08:43:28.383Z,14.43
2018-09-29T08:46:00.433Z,15.30
2018-09-29T08:48:32.911Z,16.80
2018-09-29T08:51:05.233Z,9.47
2018-09-29T08:53:37.531Z,9.80
2018-09-29T08:56:09.901Z,7.70
2018-09-29T08:58:42.204Z,12.00
2018-09-29T09:01:14.642Z,9.30
2018-09-29T09:03:46.948Z,14.60
2018-09-29T09:06:19.615Z,8.83
2018-09-29T09:08:52.155Z,9.90
2018-09-29T09:11:24.822Z,9.00
2018-09-29T09:13:57.227Z,9.67
2018-09-29T09:16:29.361Z,10.30
2018-09-29T09:19:01.499Z,8.37
2018-09-29T09:21:33.789Z,10.80
2018-09-29T09:24:05.897Z,11.03
2018-09-29T09:26:38.071Z,10.73
2018-09-29T09:29:10.546Z,13.90
2018-09-29T09:31:43.756Z,15.27
2018-09-29T09:34:15.898Z,9.43
2018-09-29T09:36:48.245Z,9.10
2018-09-29T09:39:20.662Z,9.73
2018-09-29T09:41:52.668Z,12.87
2018-09-29T09:44:25.322Z,10.20
2018-09-29T09:46:57.811Z,9.73
2018-09-29T09:49:29.892Z,12.07
2018-09-29T09:52:02.675Z,11.10
2018-09-29T09:54:34.812Z,9.70
2018-09-29T09:57:07.550Z,10.77
2018-09-29T09:59:39.546Z,9.10
2018-09-29T10:02:16.554Z,9.93
2018-09-29T10:04:48.583Z,9.63
2018-09-29T10:07:20.622Z,12.00
2018-09-29T10:09:53.844Z,8.23
2018-09-29T10:12:26.366Z,10.27
2018-09-29T10:14:58.688Z,8.90
2018-09-29T10:17:31.226Z,9.20
2018-09-29T10:20:03.402Z,9.40
2018-09-29T10:22:35.581Z,8.83
2018-09-29T10:25:07.870Z,10.10
2018-09-29T10:27:40.256Z,10.77
2018-09-29T10:30:12.986Z,7.83
2018-09-29T10:32:45.338Z,9.57
2018-09-29T10:35:17.408Z,8.97
2018-09-29T10:37:50.107Z,11.33
2018-09-29T10:40:22.387Z,9.67
2018-09-29T10:42:54.832Z,9.40
2018-09-29T10:45:27.249Z,10.00
2018-09-29T10:47:59.898Z,10.90
2018-09-29T10:50:31.861Z,11.80
2018-09-29T10:53:04.306Z,10.20
2018-09-29T10:55:36.412Z,10.37
2018-09-29T10:58:08.793Z,11.37
2018-09-29T11:00:41.225Z,9.43
2018-09-29T11:03:13.727Z,10.33
2018-09-29T11:05:45.988Z,9.23
2018-09-29T11:08:18.206Z,11.00
2018-09-29T11:10:50.337Z,9.37
2018-09-29T11:13:22.727Z,8.23
2018-09-29T11:15:55.074Z,12.03
2018-09-29T11:18:27.002Z,10.80
2018-09-29T11:20:59.108Z,11.20
2018-09-29T11:23:31.434Z,9.40
2018-09-29T11:26:03.753Z,9.60
2018-09-29T11:28:36.187Z,9.17
2018-09-29T11:31:08.397Z,9.93
2018-09-29T11:33:40.812Z,9.73
2018-09-29T11:36:13.135Z,10.63
2018-09-29T11:38:45.575Z,9.17
2018-09-29T11:41:17.751Z,11.10
2018-09-29T11:43:50.047Z,11.97
2018-09-29T11:46:22.276Z,11.73
2018-09-29T11:48:54.672Z,30.13
2018-09-29T11:51:26.928Z,24.70
2018-09-29T11:53:59.435Z,13.73
2018-09-29T11:56:31.683Z,14.07
2018-09-29T11:59:03.809Z,10.47
2018-09-29T12:01:36.102Z,8.37
2018-09-29T12:04:08.339Z,10.60
2018-09-29T12:06:40.596Z,11.30
2018-09-29T12:09:14.091Z,9.97
2018-09-29T12:11:46.315Z,10.60
2018-09-29T12:14:18.553Z,10.97
2018-09-29T12:16:50.662Z,15.03
2018-09-29T12:19:23.477Z,12.03
2018-09-29T12:21:55.817Z,11.57
2018-09-29T12:24:28.373Z,10.10
2018-09-29T12:27:00.350Z,13.17
2018-09-29T12:29:32.821Z,13.13
2018-09-29T12:32:05.095Z,13.90
2018-09-29T12:34:37.485Z,13.77
2018-09-29T12:37:09.723Z,15.67
2018-09-29T12:39:42.071Z,13.47
2018-09-29T12:42:14.373Z,11.93
2018-09-29T12:44:46.362Z,14.70
2018-09-29T12:47:18.701Z,14.97
2018-09-29T12:49:51.165Z,13.00
2018-09-29T12:52:23.260Z,19.33
2018-09-29T12:54:55.966Z,13.17
2018-09-29T12:57:28.168Z,14.63
2018-09-29T13:00:00.226Z,14.63
2018-09-29T13:02:32.210Z,15.23
2018-09-29T13:05:04.431Z,15.27
2018-09-29T13:07:36.955Z,17.63
2018-09-29T13:10:09.466Z,13.47
2018-09-29T13:12:41.733Z,14.90
2018-09-29T13:15:14.101Z,15.80
2018-09-29T13:17:46.448Z,15.00
2018-09-29T13:20:18.780Z,15.10
2018-09-29T13:22:50.854Z,15.80
2018-09-29T13:25:23.006Z,17.30
2018-09-29T13:27:55.177Z,16.93
2018-09-29T13:30:27.410Z,16.20
2018-09-29T13:32:59.614Z,14.53
2018-09-29T13:35:31.978Z,14.73
2018-09-29T13:38:04.384Z,17.20
2018-09-29T13:40:36.656Z,16.73
2018-09-29T13:43:08.715Z,14.30
2018-09-29T13:45:41.188Z,14.87
2018-09-29T13:48:13.767Z,13.20
2018-09-29T13:50:46.174Z,13.10
2018-09-29T13:53:18.601Z,17.80
2018-09-29T13:55:51.422Z,15.07
2018-09-29T13:58:23.550Z,15.10
2018-09-29T14:00:55.679Z,15.67
2018-09-29T14:03:27.905Z,16.67
2018-09-29T14:06:00.003Z,16.07
2018-09-29T14:08:32.327Z,18.47
2018-09-29T14:11:04.459Z,18.93
2018-09-29T14:13:36.964Z,13.90
2018-09-29T14:16:09.564Z,16.20
2018-09-29T14:18:41.554Z,17.90
2018-09-29T14:21:13.946Z,19.97
2018-09-29T14:23:46.060Z,21.70
2018-09-29T14:26:18.661Z,14.30
2018-09-29T14:28:50.995Z,17.53
2018-09-29T14:31:23.427Z,16.03
2018-09-29T14:33:55.785Z,18.70
2018-09-29T14:36:27.916Z,20.90
2018-09-29T14:38:59.985Z,15.33
2018-09-29T14:41:32.371Z,16.60
2018-09-29T14:44:04.715Z,18.73
2018-09-29T14:46:36.986Z,19.03
2018-09-29T14:49:09.267Z,17.10
2018-09-29T14:51:41.725Z,15.23
2018-09-29T14:54:14.234Z,18.00
2018-09-29T14:56:46.634Z,20.10
2018-09-29T14:59:19.078Z,16.10
2018-09-29T15:01:51.195Z,16.47
2018-09-29T15:04:23.383Z,20.17
2018-09-29T15:06:55.661Z,18.13
2018-09-29T15:09:28.033Z,17.20
2018-09-29T15:12:00.242Z,18.43
2018-09-29T15:14:33.019Z,15.53
2018-09-29T15:17:05.814Z,17.10
2018-09-29T15:19:38.498Z,18.17
2018-09-29T15:22:10.593Z,19.00
2018-09-29T15:24:43.307Z,16.67
2018-09-29T15:27:15.509Z,15.57
2018-09-29T15:29:47.642Z,17.70
2018-09-29T15:32:19.823Z,14.60
2018-09-29T15:34:51.901Z,17.03
2018-09-29T15:37:24.124Z,16.63
2018-09-29T15:39:56.447Z,17.47
2018-09-29T15:42:29.349Z,14.53
2018-09-29T15:45:01.357Z,14.57
2018-09-29T15:47:33.788Z,17.67
2018-09-29T15:50:06.093Z,15.70
2018-09-29T15:52:38.472Z,17.07
2018-09-29T15:55:10.877Z,17.53
2018-09-29T15:57:43.058Z,15.17
2018-09-29T16:00:15.147Z,16.10
2018-09-29T16:02:47.564Z,15.10
2018-09-29T16:05:19.705Z,15.67
2018-09-29T16:07:52.090Z,19.27
2018-09-29T16:10:24.285Z,13.00
2018-09-29T16:12:56.464Z,19.37
2018-09-29T16:15:28.253Z,14.00
2018-09-29T16:18:00.987Z,16.40
2018-09-29T16:20:32.747Z,19.47
2018-09-29T16:23:04.693Z,15.20
2018-09-29T16:25:36.405Z,16.67
2018-09-29T16:28:08.646Z,14.50
2018-09-29T16:30:40.372Z,12.87
2018-09-29T16:33:12.664Z,13.77
2018-09-29T16:35:44.372Z,14.43
2018-09-29T16:38:16.179Z,16.00
2018-09-29T16:40:48.868Z,16.17
2018-09-29T16:43:21.131Z,17.50
2018-09-29T16:45:52.950Z,14.57
2018-09-29T16:48:25.425Z,17.03
2018-09-29T16:50:58.179Z,12.90
2018-09-29T16:53:30.625Z,15.10
2018-09-29T16:56:02.348Z,13.07
2018-09-29T16:58:34.087Z,16.80
2018-09-29T17:01:05.813Z,18.83
2018-09-29T17:03:37.754Z,17.27
2018-09-29T17:06:09.722Z,12.80
2018-09-29T17:08:41.562Z,16.43
2018-09-29T17:11:13.312Z,14.27
2018-09-29T17:13:45.821Z,14.30
2018-09-29T17:16:17.524Z,20.50
2018-09-29T17:18:49.623Z,15.13
2018-09-29T17:21:21.756Z,15.50
2018-09-29T17:23:54.157Z,17.90
2018-09-29T17:26:26.386Z,15.30
2018-09-29T17:28:58.887Z,16.30
2018-09-29T17:31:32.338Z,14.00
2018-09-29T17:34:04.480Z,12.87
2018-09-29T17:36:36.228Z,14.27
2018-09-29T17:39:11.026Z,15.43
2018-09-29T17:41:42.795Z,16.40
2018-09-29T17:44:14.594Z,15.90
2018-09-29T17:46:46.311Z,12.70
2018-09-29T17:49:18.041Z,13.33
2018-09-29T17:51:49.755Z,14.97
2018-09-29T17:54:21.571Z,15.47
2018-09-29T17:56:53.306Z,16.80
2018-09-29T17:59:26.102Z,15.20
2018-09-29T18:01:58.637Z,14.00
2018-09-29T18:04:30.885Z,12.37
2018-09-29T18:07:03.123Z,13.00
2018-09-29T18:09:35.465Z,14.67
2018-09-29T18:12:07.814Z,12.50
2018-09-29T18:14:39.855Z,12.20
2018-09-29T18:17:12.166Z,12.13
2018-09-29T18:19:44.378Z,10.87
2018-09-29T18:22:16.112Z,19.20
2018-09-29T18:24:47.902Z,16.77
2018-09-29T18:27:20.012Z,13.80
2018-09-29T18:29:52.653Z,12.60
2018-09-29T18:32:25.127Z,15.10
2018-09-29T18:34:57.081Z,12.53
2018-09-29T18:37:29.489Z,13.23
2018-09-29T18:40:01.953Z,12.50
2018-09-29T18:42:33.725Z,14.80
2018-09-29T18:45:05.567Z,14.27
2018-09-29T18:47:37.825Z,15.57
2018-09-29T18:50:09.749Z,14.27
2018-09-29T18:52:41.568Z,14.30
2018-09-29T18:55:13.494Z,16.60
2018-09-29T18:57:45.318Z,14.23
2018-09-29T19:00:17.997Z,13.30
2018-09-29T19:02:50.261Z,11.23
2018-09-29T19:05:22.099Z,10.93
2018-09-29T19:07:54.577Z,15.80
2018-09-29T19:10:26.385Z,11.30
2018-09-29T19:12:58.954Z,11.50
2018-09-29T19:15:30.789Z,9.73
2018-09-29T19:18:03.254Z,10.20
2018-09-29T19:20:36.443Z,11.50
2018-09-29T19:23:08.399Z,12.37
2018-09-29T19:25:40.237Z,10.90
2018-09-29T19:28:11.944Z,12.30
2018-09-29T19:30:44.110Z,17.53
2018-09-29T19:33:15.859Z,13.70
2018-09-29T19:35:48.109Z,10.00
2018-09-29T19:38:19.835Z,15.40
2018-09-29T19:40:52.151Z,11.43
2018-09-29T19:43:23.983Z,9.30
2018-09-29T19:45:55.796Z,11.60
2018-09-29T19:48:27.884Z,13.30
2018-09-29T19:51:00.550Z,15.50
2018-09-29T19:53:32.288Z,12.13
2018-09-29T19:56:04.093Z,13.83
2018-09-29T19:58:36.373Z,10.83
2018-09-29T20:01:08.552Z,11.70
2018-09-29T20:03:40.700Z,11.00
2018-09-29T20:06:12.622Z,15.47
2018-09-29T20:08:44.374Z,14.60
2018-09-29T20:11:16.902Z,9.43
2018-09-29T20:13:49.177Z,9.17
2018-09-29T20:16:20.984Z,12.20
2018-09-29T20:18:53.950Z,11.40
2018-09-29T20:21:26.844Z,11.43
2018-09-29T20:23:59.281Z,11.90
2018-09-29T20:26:31.059Z,10.30
2018-09-29T20:29:02.804Z,9.67
2018-09-29T20:31:34.573Z,11.07
2018-09-29T20:34:06.435Z,15.37
2018-09-29T20:36:38.167Z,11.53
2018-09-29T20:39:13.847Z,10.37
2018-09-29T20:41:46.218Z,10.80
2018-09-29T20:44:18.168Z,12.03
2018-09-29T20:46:50.876Z,12.30
2018-09-29T20:49:23.127Z,11.10
2018-09-29T20:51:55.480Z,15.07
2018-09-29T20:54:27.170Z,11.23
2018-09-29T20:56:59.730Z,10.23
2018-09-29T20:59:31.500Z,12.60
2018-09-29T21:02:04.132Z,13.53
2018-09-29T21:04:36.237Z,14.17
2018-09-29T21:07:08.201Z,16.60
2018-09-29T21:09:39.983Z,13.77
2018-09-29T21:12:12.384Z,9.67
2018-09-29T21:14:44.513Z,14.90
2018-09-29T21:17:18.124Z,13.80
2018-09-29T21:19:49.898Z,13.30
2018-09-29T21:22:22.746Z,13.90
2018-09-29T21:24:55.479Z,9.17
2018-09-29T21:27:27.258Z,9.13
2018-09-29T21:29:58.997Z,10.00
2018-09-29T21:32:30.877Z,7.80
2018-09-29T21:35:03.161Z,12.00
2018-09-29T21:37:35.642Z,7.80
2018-09-29T21:40:07.551Z,9.10
2018-09-29T21:42:39.309Z,7.20
2018-09-29T21:45:11.680Z,9.57
2018-09-29T21:47:43.866Z,9.90
2018-09-29T21:50:16.610Z,10.30
2018-09-29T21:52:49.722Z,10.73
2018-09-29T21:55:21.982Z,9.03
2018-09-29T21:57:54.307Z,9.23
2018-09-29T22:00:31.411Z,9.73
2018-09-29T22:03:04.053Z,7.73
2018-09-29T22:05:35.807Z,6.70
2018-09-29T22:08:08.578Z,8.30
2018-09-29T22:10:40.941Z,12.30
2018-09-29T22:13:13.634Z,7.83
2018-09-29T22:15:45.334Z,8.87
2018-09-29T22:18:17.116Z,9.87
2018-09-29T22:20:49.404Z,10.10
2018-09-29T22:23:21.554Z,11.73
2018-09-29T22:25:54.863Z,7.97
2018-09-29T22:28:27.757Z,14.03
2018-09-29T22:31:00.192Z,11.93
2018-09-29T22:33:32.394Z,6.73
2018-09-29T22:36:04.689Z,7.63
2018-09-29T22:38:37.180Z,8.83
2018-09-29T22:41:08.977Z,13.87
2018-09-29T22:43:40.869Z,8.37
2018-09-29T22:46:12.977Z,12.70
2018-09-29T22:48:45.782Z,10.17
2018-09-29T22:51:17.603Z,11.77
2018-09-29T22:53:49.367Z,11.43
2018-09-29T22:56:21.566Z,11.40
2018-09-29T22:58:53.650Z,9.50
2018-09-29T23:01:25.512Z,8.30
2018-09-29T23:03:57.330Z,9.83
2018-09-29T23:06:29.297Z,8.47
2018-09-29T23:09:01.765Z,10.87
2018-09-29T23:11:33.513Z,11.97
2018-09-29T23:14:05.975Z,10.30
2018-09-29T23:16:39.537Z,12.37
2018-09-29T23:19:11.595Z,8.17
2018-09-29T23:21:44.346Z,9.43
2018-09-29T23:24:16.574Z,7.37
2018-09-29T23:26:49.325Z,7.67
2018-09-29T23:29:21.776Z,7.63
2018-09-29T23:31:54.258Z,9.40
2018-09-29T23:34:26.665Z,6.70
2018-09-29T23:36:58.848Z,8.13
2018-09-29T23:39:31.175Z,9.47
2018-09-29T23:42:03.397Z,10.97
2018-09-29T23:44:35.894Z,8.73
2018-09-29T23:47:08.889Z,7.77
2018-09-29T23:49:41.097Z,8.20
2018-09-29T23:52:13.446Z,9.17
2018-09-29T23:54:45.718Z,8.90
2018-09-29T23:57:17.826Z,7.97
2018-09-29T23:59:50.566Z,8.57
